createdAt,value
2023-04-18T00:01:23.380Z,6.53
2023-04-18T00:03:50.931Z,7.50
2023-04-18T00:06:17.552Z,10.45
2023-04-18T00:08:44.009Z,7.53
2023-04-18T00:11:10.542Z,5.95
2023-04-18T00:13:38.495Z,7.97
2023-04-18T00:16:05.314Z,12.70
2023-04-18T00:18:31.732Z,6.18
2023-04-18T00:20:58.194Z,6.03
2023-04-18T00:23:28.161Z,5.28
2023-04-18T00:25:54.647Z,8.35
2023-04-18T00:28:21.051Z,6.35
2023-04-18T00:30:47.509Z,7.05
2023-04-18T00:33:13.885Z,6.35
2023-04-18T00:35:40.408Z,7.50
2023-04-18T00:38:06.838Z,6.97
2023-04-18T00:40:33.435Z,7.18
2023-04-18T00:43:00.254Z,7.75
2023-04-18T00:45:26.690Z,6.28
2023-04-18T00:47:53.137Z,5.53
2023-04-18T00:50:19.889Z,6.57
2023-04-18T00:52:47.063Z,10.77
2023-04-18T00:55:13.612Z,7.38
2023-04-18T00:57:40.474Z,6.38
2023-04-18T01:00:10.432Z,7.72
2023-04-18T01:02:37.703Z,7.93
2023-04-18T01:05:04.335Z,7.57
2023-04-18T01:07:31.889Z,7.10
2023-04-18T01:09:58.761Z,6.90
2023-04-18T01:12:25.318Z,7.18
2023-04-18T01:14:51.742Z,7.50
2023-04-18T01:17:19.373Z,6.80
2023-04-18T01:19:46.853Z,10.30
2023-04-18T01:22:17.266Z,8.98
2023-04-18T01:24:43.609Z,6.97
2023-04-18T01:27:13.887Z,8.32
2023-04-18T01:29:40.485Z,7.63
2023-04-18T01:32:07.035Z,8.13
2023-04-18T01:34:33.525Z,7.45
2023-04-18T01:37:00.006Z,6.57
2023-04-18T01:39:26.480Z,8.95
2023-04-18T01:41:52.954Z,6.53
2023-04-18T01:44:19.503Z,8.95
2023-04-18T01:46:46.031Z,6.05
2023-04-18T01:49:12.790Z,6.93
2023-04-18T01:51:39.478Z,8.93
2023-04-18T01:54:06.084Z,6.00
2023-04-18T01:56:32.549Z,7.97
2023-04-18T01:58:58.995Z,7.30
2023-04-18T02:01:25.462Z,7.63
2023-04-18T02:03:52.059Z,7.35
2023-04-18T02:06:18.634Z,6.07
2023-04-18T02:08:45.072Z,6.15
2023-04-18T02:11:11.553Z,7.32
2023-04-18T02:13:37.988Z,7.38
2023-04-18T02:16:04.572Z,7.30
2023-04-18T02:18:34.553Z,6.68
2023-04-18T02:21:01.104Z,7.30
2023-04-18T02:23:27.480Z,7.82
2023-04-18T02:25:54.516Z,6.60
2023-04-18T02:28:20.944Z,6.97
2023-04-18T02:30:47.382Z,8.00
2023-04-18T02:33:13.830Z,8.38
2023-04-18T02:35:40.243Z,7.22
2023-04-18T02:38:06.691Z,9.50
2023-04-18T02:40:33.060Z,8.88
2023-04-18T02:42:59.728Z,8.35
2023-04-18T02:45:26.110Z,7.22
2023-04-18T02:47:56.112Z,6.93
2023-04-18T02:50:23.674Z,6.72
2023-04-18T02:52:50.261Z,7.53
2023-04-18T02:55:16.709Z,8.38
2023-04-18T02:57:43.201Z,6.68
2023-04-18T03:00:09.938Z,7.45
2023-04-18T03:02:36.438Z,6.65
2023-04-18T03:05:03.397Z,13.65
2023-04-18T03:07:30.931Z,8.20
2023-04-18T03:09:57.508Z,8.95
2023-04-18T03:12:23.896Z,9.05
2023-04-18T03:14:50.715Z,7.55
2023-04-18T03:17:17.237Z,8.38
2023-04-18T03:19:45.003Z,8.07
2023-04-18T03:22:11.435Z,7.20
2023-04-18T03:24:37.808Z,8.15
2023-04-18T03:27:04.180Z,6.88
2023-04-18T03:29:31.128Z,5.88
2023-04-18T03:31:57.542Z,6.15
2023-04-18T03:34:24.006Z,8.45
2023-04-18T03:36:50.603Z,8.70
2023-04-18T03:39:16.995Z,6.65
2023-04-18T03:41:43.424Z,9.05
2023-04-18T03:44:09.763Z,8.18
2023-04-18T03:46:36.318Z,6.82
2023-04-18T03:49:02.869Z,6.38
2023-04-18T03:51:41.465Z,7.05
2023-04-18T03:54:07.853Z,7.10
2023-04-18T03:56:34.368Z,7.13
2023-04-18T03:59:00.766Z,5.50
2023-04-18T04:01:27.208Z,8.35
2023-04-18T04:03:53.838Z,6.53
2023-04-18T04:06:20.853Z,7.10
2023-04-18T04:08:47.340Z,8.02
2023-04-18T04:11:13.821Z,8.50
2023-04-18T04:13:40.309Z,5.72
2023-04-18T04:16:07.287Z,5.03
2023-04-18T04:18:33.716Z,7.13
2023-04-18T04:21:00.458Z,6.28
2023-04-18T04:23:27.307Z,4.78
2023-04-18T04:25:54.488Z,4.93
2023-04-18T04:28:24.004Z,4.15
2023-04-18T04:33:18.495Z,5.45
2023-04-18T04:35:45.174Z,7.82
2023-04-18T04:38:12.465Z,4.57
2023-04-18T04:40:38.860Z,6.57
2023-04-18T04:43:05.544Z,7.55
2023-04-18T04:45:33.178Z,4.28
2023-04-18T04:47:59.712Z,12.10
2023-04-18T04:50:26.169Z,6.95
2023-04-18T04:52:52.654Z,5.53
2023-04-18T04:55:19.189Z,4.93
2023-04-18T04:57:45.636Z,5.80
2023-04-18T05:00:13.767Z,4.95
2023-04-18T05:02:40.347Z,7.82
2023-04-18T05:05:06.945Z,9.82
2023-04-18T05:07:33.355Z,5.22
2023-04-18T05:09:59.788Z,3.55
2023-04-18T05:12:26.871Z,5.97
2023-04-18T05:14:53.306Z,6.80
2023-04-18T05:17:19.693Z,5.30
2023-04-18T05:19:46.126Z,5.32
2023-04-18T05:22:12.633Z,6.10
2023-04-18T05:24:39.506Z,5.10
2023-04-18T05:27:06.249Z,3.17
2023-04-18T05:29:32.888Z,5.35
2023-04-18T05:31:59.512Z,6.60
2023-04-18T05:34:26.002Z,5.30
2023-04-18T05:36:52.952Z,6.10
2023-04-18T05:39:19.499Z,5.60
2023-04-18T05:41:45.932Z,4.72
2023-04-18T05:44:12.404Z,3.75
2023-04-18T05:46:39.185Z,4.38
2023-04-18T05:49:05.873Z,2.67
2023-04-18T05:51:32.315Z,5.75
2023-04-18T05:53:58.840Z,3.88
2023-04-18T05:56:25.318Z,4.00
2023-04-18T05:58:51.906Z,2.65
2023-04-18T06:01:21.599Z,2.67
2023-04-18T06:03:48.229Z,2.88
2023-04-18T06:06:14.960Z,3.20
2023-04-18T06:08:41.525Z,3.08
2023-04-18T06:11:09.002Z,3.25
2023-04-18T06:13:36.271Z,8.35
2023-04-18T06:16:03.225Z,2.65
2023-04-18T06:18:29.686Z,4.97
2023-04-18T06:20:56.250Z,2.83
2023-04-18T06:23:22.705Z,5.35
2023-04-18T06:25:49.142Z,3.08
2023-04-18T06:28:16.127Z,2.42
2023-04-18T06:30:42.548Z,2.25
2023-04-18T06:33:12.023Z,4.15
2023-04-18T06:35:38.819Z,4.78
2023-04-18T06:38:05.280Z,5.25
2023-04-18T06:40:31.868Z,5.50
2023-04-18T06:42:58.284Z,3.40
2023-04-18T06:45:24.648Z,3.72
2023-04-18T06:47:52.513Z,5.03
2023-04-18T06:50:19.097Z,2.28
2023-04-18T06:52:45.619Z,3.30
2023-04-18T06:55:12.879Z,3.58
2023-04-18T06:57:43.155Z,5.07
2023-04-18T07:00:10.587Z,3.92
2023-04-18T07:02:37.826Z,4.35
2023-04-18T07:05:04.641Z,3.08
2023-04-18T07:07:31.330Z,3.75
2023-04-18T07:09:57.760Z,4.20
2023-04-18T07:12:24.659Z,1.83
2023-04-18T07:14:51.651Z,3.05
2023-04-18T07:17:18.202Z,2.90
2023-04-18T07:19:44.850Z,4.55
2023-04-18T07:22:14.089Z,3.17
2023-04-18T07:27:07.624Z,2.45
2023-04-18T07:29:34.177Z,6.63
2023-04-18T07:32:00.672Z,3.10
2023-04-18T07:34:29.956Z,2.38
2023-04-18T07:39:23.372Z,1.98
2023-04-18T07:41:49.855Z,2.97
2023-04-18T07:44:16.433Z,2.58
2023-04-18T07:46:43.075Z,3.00
2023-04-18T07:49:09.544Z,5.43
2023-04-18T07:51:38.769Z,7.95
2023-04-18T07:56:31.568Z,2.53
2023-04-18T07:58:57.927Z,4.07
2023-04-18T08:01:27.056Z,4.05
2023-04-18T08:03:55.167Z,1.92
2023-04-18T08:06:21.850Z,3.80
2023-04-18T08:08:48.239Z,3.22
2023-04-18T08:11:14.816Z,2.10
2023-04-18T08:13:41.347Z,3.50
2023-04-18T08:16:07.869Z,3.22
2023-04-18T08:18:35.593Z,3.80
2023-04-18T08:21:02.026Z,2.63
2023-04-18T08:23:28.420Z,3.63
2023-04-18T08:25:54.868Z,3.25
2023-04-18T08:28:21.340Z,3.42
2023-04-18T08:30:49.250Z,2.10
2023-04-18T08:33:16.240Z,5.53
2023-04-18T08:35:43.106Z,2.65
2023-04-18T08:38:09.713Z,2.72
2023-04-18T08:40:37.160Z,4.43
2023-04-18T08:43:07.879Z,1.73
2023-04-18T08:45:34.500Z,3.47
2023-04-18T08:48:03.603Z,1.90
2023-04-18T08:52:56.776Z,2.58
2023-04-18T08:55:23.262Z,2.60
2023-04-18T08:57:54.159Z,2.53
2023-04-18T09:00:20.906Z,2.50
2023-04-18T09:02:47.603Z,2.45
2023-04-18T09:05:15.387Z,7.07
2023-04-18T09:07:42.090Z,2.58
2023-04-18T09:10:09.982Z,3.80
2023-04-18T09:12:52.445Z,4.40
2023-04-18T09:15:20.981Z,2.58
2023-04-18T09:17:53.367Z,2.50
2023-04-18T09:20:47.683Z,3.78
2023-04-18T09:23:23.466Z,4.43
2023-04-18T09:25:52.146Z,4.60
2023-04-18T09:28:22.566Z,2.35
2023-04-18T09:30:51.461Z,3.33
2023-04-18T09:33:17.955Z,3.63
2023-04-18T09:35:44.479Z,4.57
2023-04-18T09:38:10.852Z,3.55
2023-04-18T09:40:37.322Z,4.80
2023-04-18T09:43:17.911Z,2.95
2023-04-18T09:45:44.391Z,3.03
2023-04-18T09:48:11.006Z,2.60
2023-04-18T09:50:38.968Z,3.42
2023-04-18T09:53:06.340Z,7.47
2023-04-18T09:55:33.480Z,3.38
2023-04-18T09:58:00.832Z,4.35
2023-04-18T10:00:30.167Z,4.28
2023-04-18T10:02:58.080Z,3.40
2023-04-18T10:05:28.467Z,2.95
2023-04-18T10:07:55.437Z,3.65
2023-04-18T10:10:21.968Z,3.80
2023-04-18T10:12:50.700Z,3.95
2023-04-18T10:15:18.077Z,3.15
2023-04-18T10:18:02.857Z,3.38
2023-04-18T10:20:31.619Z,3.97
2023-04-18T10:22:58.984Z,3.33
2023-04-18T10:25:41.126Z,3.38
2023-04-18T10:28:08.284Z,3.22
2023-04-18T10:30:55.017Z,4.03
2023-04-18T10:33:31.047Z,3.25
2023-04-18T10:36:01.631Z,3.13
2023-04-18T10:38:28.264Z,3.17
2023-04-18T10:41:12.673Z,3.53
2023-04-18T10:43:59.284Z,2.85
2023-04-18T10:46:32.272Z,2.92
2023-04-18T10:49:14.770Z,5.10
2023-04-18T10:51:41.498Z,3.13
2023-04-18T10:54:09.824Z,6.30
2023-04-18T10:56:36.446Z,3.25
2023-04-18T10:59:03.435Z,3.65
2023-04-18T11:01:32.652Z,2.78
2023-04-18T11:03:59.858Z,3.03
2023-04-18T11:06:30.364Z,5.78
2023-04-18T11:09:12.482Z,3.50
2023-04-18T11:11:39.282Z,4.38
2023-04-18T11:14:05.891Z,2.42
2023-04-18T11:16:33.542Z,2.95
2023-04-18T11:19:00.331Z,6.77
2023-04-18T11:21:30.791Z,7.68
2023-04-18T11:23:57.854Z,5.20
2023-04-18T11:26:24.831Z,7.65
2023-04-18T11:28:52.940Z,2.70
2023-04-18T11:31:21.973Z,3.78
2023-04-18T11:33:48.378Z,3.97
2023-04-18T11:36:14.820Z,4.15
2023-04-18T11:38:41.937Z,5.10
2023-04-18T11:41:15.157Z,3.22
2023-04-18T11:43:45.623Z,2.80
2023-04-18T11:46:13.259Z,3.13
2023-04-18T11:48:45.211Z,4.28
2023-04-18T11:51:30.405Z,4.00
2023-04-18T11:53:56.810Z,3.40
2023-04-18T11:56:23.205Z,3.22
2023-04-18T11:58:49.719Z,4.28
2023-04-18T12:01:20.209Z,3.40
2023-04-18T12:04:08.670Z,3.83
2023-04-18T12:06:48.615Z,3.42
2023-04-18T12:09:15.754Z,2.58
2023-04-18T12:11:42.530Z,4.82
2023-04-18T12:14:21.726Z,2.50
2023-04-18T12:16:51.283Z,4.35
2023-04-18T12:19:20.725Z,2.60
2023-04-18T12:21:57.283Z,2.33
2023-04-18T12:24:25.205Z,3.05
2023-04-18T12:26:52.249Z,3.20
2023-04-18T12:29:19.060Z,2.83
2023-04-18T12:31:45.509Z,2.50
2023-04-18T12:34:12.270Z,3.55
2023-04-18T12:36:38.926Z,2.30
2023-04-18T12:39:05.479Z,3.22
2023-04-18T12:41:31.930Z,2.35
2023-04-18T12:43:58.439Z,2.05
2023-04-18T12:46:25.721Z,2.22
2023-04-18T12:48:52.156Z,2.05
2023-04-18T12:51:18.689Z,2.28
2023-04-18T12:53:45.335Z,2.63
2023-04-18T12:56:12.012Z,2.00
2023-04-18T12:58:39.060Z,2.10
2023-04-18T13:01:05.516Z,2.53
2023-04-18T13:03:34.115Z,2.50
2023-04-18T13:06:00.711Z,1.90
2023-04-18T13:08:27.108Z,2.97
2023-04-18T13:10:53.462Z,1.90
2023-04-18T13:13:19.861Z,3.00
2023-04-18T13:15:46.245Z,3.33
2023-04-18T13:18:12.617Z,2.20
2023-04-18T13:20:39.057Z,3.90
2023-04-18T13:23:05.557Z,3.53
2023-04-18T13:25:31.991Z,2.55
2023-04-18T13:27:58.606Z,2.00
2023-04-18T13:30:25.112Z,2.00
2023-04-18T13:32:51.765Z,2.92
2023-04-18T13:35:18.342Z,1.60
2023-04-18T13:37:44.787Z,3.38
2023-04-18T13:40:11.566Z,4.00
2023-04-18T13:42:38.247Z,2.47
2023-04-18T13:45:04.904Z,1.70
2023-04-18T13:47:31.462Z,2.13
2023-04-18T13:49:58.114Z,3.25
2023-04-18T13:52:24.949Z,2.65
2023-04-18T13:54:51.372Z,2.27
2023-04-18T13:57:17.833Z,1.30
2023-04-18T13:59:44.221Z,2.17
2023-04-18T14:02:11.009Z,2.20
2023-04-18T14:04:37.788Z,2.05
2023-04-18T14:07:06.433Z,1.52
2023-04-18T14:09:33.037Z,2.35
2023-04-18T14:11:59.693Z,1.60
2023-04-18T14:14:26.347Z,1.33
2023-04-18T14:16:53.764Z,1.83
2023-04-18T14:19:20.302Z,1.27
2023-04-18T14:21:47.001Z,1.48
2023-04-18T14:24:16.566Z,3.00
2023-04-18T14:26:43.015Z,1.30
2023-04-18T14:29:09.528Z,1.50
2023-04-18T14:31:36.382Z,1.10
2023-04-18T14:34:02.874Z,2.00
2023-04-18T14:36:29.440Z,2.13
2023-04-18T14:38:55.898Z,1.23
2023-04-18T14:41:22.315Z,1.50
2023-04-18T14:43:48.910Z,1.27
2023-04-18T14:46:18.670Z,2.17
2023-04-18T14:48:46.397Z,1.27
2023-04-18T14:51:13.001Z,1.52
2023-04-18T14:53:39.466Z,1.60
2023-04-18T14:56:06.064Z,1.05
2023-04-18T14:58:32.763Z,1.25
2023-04-18T15:00:59.233Z,2.28
2023-04-18T15:03:25.912Z,1.02
2023-04-18T15:05:53.240Z,0.80
2023-04-18T15:08:19.714Z,1.43
2023-04-18T15:10:47.664Z,1.20
2023-04-18T15:13:14.294Z,1.80
2023-04-18T15:15:41.086Z,2.45
2023-04-18T15:18:08.608Z,1.55
2023-04-18T15:20:36.984Z,2.85
2023-04-18T15:23:03.477Z,2.00
2023-04-18T15:25:30.680Z,2.95
2023-04-18T15:27:58.255Z,1.73
2023-04-18T15:30:24.918Z,2.25
2023-04-18T15:32:52.255Z,1.23
2023-04-18T15:35:18.815Z,2.03
2023-04-18T15:37:45.172Z,2.40
2023-04-18T15:40:16.200Z,2.30
2023-04-18T15:42:43.815Z,2.13
2023-04-18T15:45:11.164Z,2.05
2023-04-18T15:47:38.852Z,2.15
2023-04-18T15:50:05.649Z,2.55
2023-04-18T15:52:32.076Z,2.38
2023-04-18T15:54:58.696Z,1.63
2023-04-18T15:57:25.142Z,1.60
2023-04-18T15:59:51.729Z,1.30
2023-04-18T16:02:18.383Z,1.27
2023-04-18T16:04:44.868Z,3.60
2023-04-18T16:07:13.531Z,1.55
2023-04-18T16:09:39.965Z,1.60
2023-04-18T16:12:08.091Z,1.55
2023-04-18T16:14:34.547Z,2.10
2023-04-18T16:17:01.125Z,3.22
2023-04-18T16:19:27.543Z,2.28
2023-04-18T16:21:54.002Z,4.45
2023-04-18T16:24:20.694Z,3.72
2023-04-18T16:26:47.087Z,1.52
2023-04-18T16:29:13.577Z,4.70
2023-04-18T16:31:41.572Z,2.33
2023-04-18T16:34:08.082Z,2.95
2023-04-18T16:36:34.801Z,4.60
2023-04-18T16:39:01.413Z,8.32
2023-04-18T16:41:27.935Z,2.22
2023-04-18T16:43:54.335Z,1.70
2023-04-18T16:46:21.076Z,2.55
2023-04-18T16:48:48.621Z,2.05
2023-04-18T16:51:15.826Z,2.85
2023-04-18T16:53:42.370Z,3.30
2023-04-18T16:56:09.080Z,2.10
2023-04-18T16:58:35.472Z,1.55
2023-04-18T17:01:02.490Z,1.73
2023-04-18T17:03:29.118Z,2.95
2023-04-18T17:05:55.941Z,2.88
2023-04-18T17:08:22.351Z,1.50
2023-04-18T17:10:51.362Z,1.80
2023-04-18T17:15:44.374Z,2.22
2023-04-18T17:18:10.974Z,1.63
2023-04-18T17:20:37.538Z,3.05
2023-04-18T17:23:04.018Z,3.55
2023-04-18T17:25:30.436Z,1.80
2023-04-18T17:27:56.878Z,1.80
2023-04-18T17:30:23.381Z,4.13
2023-04-18T17:32:50.609Z,2.05
2023-04-18T17:35:17.892Z,2.15
2023-04-18T17:37:44.338Z,1.90
2023-04-18T17:40:11.696Z,3.85
2023-04-18T17:42:38.730Z,5.15
2023-04-18T17:45:06.852Z,2.92
2023-04-18T17:47:33.720Z,2.35
2023-04-18T17:50:00.732Z,1.58
2023-04-18T17:52:30.628Z,3.58
2023-04-18T17:54:57.358Z,2.10
2023-04-18T17:57:25.997Z,2.35
2023-04-18T17:59:52.538Z,3.45
2023-04-18T18:02:19.504Z,2.22
2023-04-18T18:04:46.500Z,2.92
2023-04-18T18:07:12.996Z,1.38
2023-04-18T18:09:40.763Z,5.60
2023-04-18T18:12:08.001Z,1.88
2023-04-18T18:14:34.460Z,1.88
2023-04-18T18:17:01.053Z,2.42
2023-04-18T18:19:27.445Z,2.25
2023-04-18T18:21:53.872Z,1.80
2023-04-18T18:24:20.366Z,2.47
2023-04-18T18:26:46.802Z,1.80
2023-04-18T18:29:13.573Z,2.97
2023-04-18T18:31:40.916Z,2.55
2023-04-18T18:34:07.589Z,3.88
2023-04-18T18:36:34.089Z,3.60
2023-04-18T18:39:00.676Z,1.85
2023-04-18T18:41:27.097Z,3.92
2023-04-18T18:43:53.628Z,1.33
2023-04-18T18:46:20.744Z,1.38
2023-04-18T18:48:48.184Z,1.20
2023-04-18T18:51:15.919Z,1.60
2023-04-18T18:53:42.401Z,1.42
2023-04-18T18:56:08.921Z,2.25
2023-04-18T18:58:36.000Z,2.20
2023-04-18T19:01:03.348Z,1.38
2023-04-18T19:03:30.383Z,1.63
2023-04-18T19:05:57.022Z,2.78
2023-04-18T19:08:23.477Z,1.77
2023-04-18T19:10:50.729Z,1.85
2023-04-18T19:13:18.982Z,1.55
2023-04-18T19:15:45.642Z,1.60
2023-04-18T19:18:12.499Z,1.95
2023-04-18T19:20:40.420Z,2.75
2023-04-18T19:23:06.899Z,1.90
2023-04-18T19:25:33.356Z,2.53
2023-04-18T19:27:59.836Z,1.00
2023-04-18T19:30:26.252Z,1.55
2023-04-18T19:32:52.732Z,1.65
2023-04-18T19:35:19.358Z,1.10
2023-04-18T19:37:46.450Z,0.73
2023-04-18T19:40:14.241Z,4.75
2023-04-18T19:42:41.100Z,1.48
2023-04-18T19:45:08.001Z,1.88
2023-04-18T19:47:34.672Z,2.13
2023-04-18T19:50:01.567Z,2.60
2023-04-18T19:52:27.995Z,2.42
2023-04-18T19:59:13.411Z,1.42
2023-04-18T20:01:50.372Z,1.52
2023-04-18T20:04:26.000Z,1.85
2023-04-18T20:06:53.669Z,2.35
2023-04-18T20:09:20.155Z,1.40
2023-04-18T20:11:47.768Z,9.52
2023-04-18T20:14:14.182Z,0.88
2023-04-18T20:16:42.748Z,1.65
2023-04-18T20:21:45.861Z,1.75
2023-04-18T20:24:12.348Z,2.00
2023-04-18T20:26:38.979Z,1.27
2023-04-18T20:29:05.288Z,1.65
2023-04-18T20:31:31.879Z,1.67
2023-04-18T20:33:58.291Z,1.45
2023-04-18T20:36:24.990Z,3.55
2023-04-18T20:38:51.462Z,0.90
2023-04-18T20:41:22.951Z,4.13
2023-04-18T20:43:50.641Z,1.05
2023-04-18T20:46:17.189Z,1.13
2023-04-18T20:48:44.612Z,1.60
2023-04-18T20:51:11.188Z,3.00
2023-04-18T20:53:37.669Z,0.90
2023-04-18T20:56:04.146Z,0.75
2023-04-18T20:58:30.619Z,1.60
2023-04-18T21:00:57.100Z,1.63
2023-04-18T21:03:23.704Z,1.08
2023-04-18T21:05:50.440Z,1.00
2023-04-18T21:08:16.905Z,2.92
2023-04-18T21:10:43.310Z,1.63
2023-04-18T21:13:12.431Z,1.63
2023-04-18T21:15:41.078Z,1.92
2023-04-18T21:18:07.539Z,2.58
2023-04-18T21:20:36.358Z,2.35
2023-04-18T21:23:03.011Z,1.55
2023-04-18T21:25:29.391Z,2.03
2023-04-18T21:27:56.906Z,1.90
2023-04-18T21:30:23.391Z,1.45
2023-04-18T21:32:51.488Z,1.45
2023-04-18T21:35:20.134Z,2.80
2023-04-18T21:37:47.832Z,1.42
2023-04-18T21:40:14.817Z,1.10
2023-04-18T21:42:41.201Z,1.77
2023-04-18T21:45:08.007Z,3.25
2023-04-18T21:47:34.410Z,0.93
2023-04-18T21:50:00.793Z,1.15
2023-04-18T21:52:27.204Z,1.30
2023-04-18T21:54:53.570Z,1.38
2023-04-18T21:57:19.983Z,1.52
2023-04-18T21:59:46.952Z,1.58
2023-04-18T22:02:13.501Z,1.92
2023-04-18T22:04:42.512Z,0.80
2023-04-18T22:07:09.310Z,1.23
2023-04-18T22:09:36.296Z,1.05
2023-04-18T22:12:04.220Z,1.35
2023-04-18T22:14:32.133Z,4.40
2023-04-18T22:16:59.067Z,1.88
2023-04-18T22:19:26.086Z,1.63
2023-04-18T22:21:52.456Z,1.30
2023-04-18T22:24:19.631Z,2.58
2023-04-18T22:26:46.120Z,4.50
2023-04-18T22:29:12.662Z,2.15
2023-04-18T22:31:39.072Z,1.33
2023-04-18T22:34:05.829Z,1.10
2023-04-18T22:36:32.382Z,1.08
2023-04-18T22:38:58.977Z,1.33
2023-04-18T22:41:25.902Z,1.48
2023-04-18T22:43:52.238Z,1.20
2023-04-18T22:46:18.731Z,1.38
2023-04-18T22:48:46.172Z,1.10
2023-04-18T22:51:14.286Z,0.73
2023-04-18T22:53:40.715Z,1.33
2023-04-18T22:56:07.212Z,2.90
2023-04-18T22:58:33.931Z,1.10
2023-04-18T23:01:00.474Z,1.42
2023-04-18T23:03:27.137Z,1.13
2023-04-18T23:05:53.741Z,1.95
2023-04-18T23:08:22.475Z,1.10
2023-04-18T23:10:49.045Z,1.52
2023-04-18T23:13:15.424Z,1.67
2023-04-18T23:15:41.953Z,0.85
2023-04-18T23:18:08.374Z,1.33
2023-04-18T23:20:34.938Z,0.95
2023-04-18T23:23:01.334Z,4.00
2023-04-18T23:25:28.195Z,1.13
2023-04-18T23:27:54.546Z,1.00
2023-04-18T23:30:21.011Z,2.25
2023-04-18T23:32:47.425Z,1.98
2023-04-18T23:35:13.850Z,1.45
2023-04-18T23:37:40.260Z,1.58
2023-04-18T23:40:08.003Z,1.10
2023-04-18T23:42:34.881Z,1.08
2023-04-18T23:45:01.598Z,0.80
2023-04-18T23:47:28.121Z,0.55
2023-04-18T23:49:54.511Z,0.60
2023-04-18T23:52:21.076Z,1.73
2023-04-18T23:54:47.461Z,0.90
2023-04-18T23:57:13.958Z,2.92
2023-04-18T23:59:40.583Z,0.75
